sensor_id;sensor_type;location;lat;lon;timestamp;P1;durP1;ratioP1;P2;durP2;ratioP2
18399;SDS011;9326;49.468;11.008;2023-07-29T05:02:31;5.17;;;3.60;;
18399;SDS011;9326;49.468;11.008;2023-07-29T05:04:58;6.47;;;3.70;;
18399;SDS011;9326;49.468;11.008;2023-07-29T05:07:25;3.77;;;3.43;;
18399;SDS011;9326;49.468;11.008;2023-07-29T05:09:52;3.37;;;3.07;;
18399;SDS011;9326;49.468;11.008;2023-07-29T05:12:19;4.10;;;3.27;;
18399;SDS011;9326;49.468;11.008;2023-07-29T05:14:46;3.63;;;3.33;;
18399;SDS011;9326;49.468;11.008;2023-07-29T05:17:13;3.70;;;3.30;;
18399;SDS011;9326;49.468;11.008;2023-07-29T05:19:42;4.33;;;3.77;;
18399;SDS011;9326;49.468;11.008;2023-07-29T05:22:09;3.90;;;3.47;;
18399;SDS011;9326;49.468;11.008;2023-07-29T05:24:37;3.50;;;3.20;;
18399;SDS011;9326;49.468;11.008;2023-07-29T05:27:04;3.90;;;3.60;;
18399;SDS011;9326;49.468;11.008;2023-07-29T05:29:33;3.63;;;3.33;;
18399;SDS011;9326;49.468;11.008;2023-07-29T05:32:00;4.40;;;3.40;;
18399;SDS011;9326;49.468;11.008;2023-07-29T05:34:27;4.80;;;3.80;;
18399;SDS011;9326;49.468;11.008;2023-07-29T05:36:56;3.60;;;3.13;;
18399;SDS011;9326;49.468;11.008;2023-07-29T05:39:23;3.53;;;3.23;;
18399;SDS011;9326;49.468;11.008;2023-07-29T05:41:50;4.33;;;3.03;;
18399;SDS011;9326;49.468;11.008;2023-07-29T05:44:17;2.97;;;2.70;;
18399;SDS011;9326;49.468;11.008;2023-07-29T05:46:44;4.07;;;3.03;;
18399;SDS011;9326;49.468;11.008;2023-07-29T05:49:12;2.87;;;2.67;;
18399;SDS011;9326;49.468;11.008;2023-07-29T05:51:39;3.90;;;2.70;;
18399;SDS011;9326;49.468;11.008;2023-07-29T05:54:08;2.93;;;2.63;;
18399;SDS011;9326;49.468;11.008;2023-07-29T05:56:35;2.97;;;2.77;;
18399;SDS011;9326;49.468;11.008;2023-07-29T05:59:02;2.47;;;2.27;;
18399;SDS011;9326;49.468;11.008;2023-07-29T06:01:29;2.87;;;2.60;;
18399;SDS011;9326;49.468;11.008;2023-07-29T06:03:56;2.70;;;2.50;;
18399;SDS011;9326;49.468;11.008;2023-07-29T06:06:23;3.33;;;2.70;;
18399;SDS011;9326;49.468;11.008;2023-07-29T06:08:50;3.47;;;2.70;;
18399;SDS011;9326;49.468;11.008;2023-07-29T06:11:18;2.50;;;2.30;;
18399;SDS011;9326;49.468;11.008;2023-07-29T06:13:45;2.67;;;2.37;;
18399;SDS011;9326;49.468;11.008;2023-07-29T06:16:12;3.00;;;2.70;;
18399;SDS011;9326;49.468;11.008;2023-07-29T06:18:40;3.87;;;2.60;;
18399;SDS011;9326;49.468;11.008;2023-07-29T06:21:07;3.93;;;3.00;;
18399;SDS011;9326;49.468;11.008;2023-07-29T06:23:37;3.93;;;2.70;;
18399;SDS011;9326;49.468;11.008;2023-07-29T06:26:04;3.33;;;2.80;;
18399;SDS011;9326;49.468;11.008;2023-07-29T06:28:33;3.97;;;2.47;;
18399;SDS011;9326;49.468;11.008;2023-07-29T06:31:00;3.00;;;2.67;;
18399;SDS011;9326;49.468;11.008;2023-07-29T06:33:28;3.40;;;2.60;;
18399;SDS011;9326;49.468;11.008;2023-07-29T06:35:55;3.90;;;2.73;;
18399;SDS011;9326;49.468;11.008;2023-07-29T06:38:22;4.30;;;2.37;;
18399;SDS011;9326;49.468;11.008;2023-07-29T06:40:49;7.07;;;2.90;;
18399;SDS011;9326;49.468;11.008;2023-07-29T06:43:16;4.83;;;3.13;;
18399;SDS011;9326;49.468;11.008;2023-07-29T06:45:44;4.70;;;3.50;;
18399;SDS011;9326;49.468;11.008;2023-07-29T06:48:11;9.23;;;3.53;;
18399;SDS011;9326;49.468;11.008;2023-07-29T06:50:38;6.17;;;3.67;;
18399;SDS011;9326;49.468;11.008;2023-07-29T06:53:05;7.17;;;3.47;;
18399;SDS011;9326;49.468;11.008;2023-07-29T06:55:32;4.80;;;3.60;;
18399;SDS011;9326;49.468;11.008;2023-07-29T06:58:00;8.00;;;3.87;;
18399;SDS011;9326;49.468;11.008;2023-07-29T07:00:27;12.00;;;3.70;;
18399;SDS011;9326;49.468;11.008;2023-07-29T07:02:55;6.53;;;3.77;;
18399;SDS011;9326;49.468;11.008;2023-07-29T07:05:22;6.53;;;3.80;;
18399;SDS011;9326;49.468;11.008;2023-07-29T07:07:50;5.73;;;3.60;;
18399;SDS011;9326;49.468;11.008;2023-07-29T07:10:17;11.67;;;4.27;;
18399;SDS011;9326;49.468;11.008;2023-07-29T07:12:44;4.80;;;3.53;;
18399;SDS011;9326;49.468;11.008;2023-07-29T07:15:11;7.93;;;3.47;;
18399;SDS011;9326;49.468;11.008;2023-07-29T07:17:38;5.23;;;3.40;;
18399;SDS011;9326;49.468;11.008;2023-07-29T07:20:07;8.57;;;3.37;;
18399;SDS011;9326;49.468;11.008;2023-07-29T07:22:34;5.83;;;3.30;;
18399;SDS011;9326;49.468;11.008;2023-07-29T07:25:01;7.43;;;3.33;;
18399;SDS011;9326;49.468;11.008;2023-07-29T07:27:28;4.27;;;2.87;;
18399;SDS011;9326;49.468;11.008;2023-07-29T07:29:55;4.83;;;3.10;;
18399;SDS011;9326;49.468;11.008;2023-07-29T07:32:22;7.53;;;3.07;;
18399;SDS011;9326;49.468;11.008;2023-07-29T07:34:49;3.50;;;2.80;;
18399;SDS011;9326;49.468;11.008;2023-07-29T07:37:18;3.73;;;3.13;;
18399;SDS011;9326;49.468;11.008;2023-07-29T07:39:45;4.10;;;3.17;;
18399;SDS011;9326;49.468;11.008;2023-07-29T07:42:12;5.03;;;3.23;;
18399;SDS011;9326;49.468;11.008;2023-07-29T07:44:39;4.80;;;3.60;;
18399;SDS011;9326;49.468;11.008;2023-07-29T07:47:06;3.43;;;3.13;;
18399;SDS011;9326;49.468;11.008;2023-07-29T07:49:33;4.67;;;3.50;;
18399;SDS011;9326;49.468;11.008;2023-07-29T07:52:00;4.70;;;3.80;;
18399;SDS011;9326;49.468;11.008;2023-07-29T07:54:28;5.77;;;3.80;;
18399;SDS011;9326;49.468;11.008;2023-07-29T07:56:56;9.23;;;3.70;;
18399;SDS011;9326;49.468;11.008;2023-07-29T07:59:23;10.47;;;4.27;;
18399;SDS011;9326;49.468;11.008;2023-07-29T08:01:50;4.17;;;3.80;;
18399;SDS011;9326;49.468;11.008;2023-07-29T08:04:17;5.33;;;4.20;;
18399;SDS011;9326;49.468;11.008;2023-07-29T08:06:44;6.63;;;4.90;;
18399;SDS011;9326;49.468;11.008;2023-07-29T08:09:12;10.70;;;4.87;;
18399;SDS011;9326;49.468;11.008;2023-07-29T08:11:41;13.43;;;4.53;;
18399;SDS011;9326;49.468;11.008;2023-07-29T08:14:08;5.83;;;4.33;;
18399;SDS011;9326;49.468;11.008;2023-07-29T08:16:35;4.90;;;3.80;;
18399;SDS011;9326;49.468;11.008;2023-07-29T08:19:02;4.53;;;4.13;;
18399;SDS011;9326;49.468;11.008;2023-07-29T08:21:29;5.10;;;4.47;;
18399;SDS011;9326;49.468;11.008;2023-07-29T08:23:56;5.73;;;4.27;;
18399;SDS011;9326;49.468;11.008;2023-07-29T08:26:23;4.60;;;4.10;;
18399;SDS011;9326;49.468;11.008;2023-07-29T08:28:51;5.90;;;3.80;;
18399;SDS011;9326;49.468;11.008;2023-07-29T08:31:18;11.87;;;4.43;;
18399;SDS011;9326;49.468;11.008;2023-07-29T08:33:45;5.53;;;4.27;;
18399;SDS011;9326;49.468;11.008;2023-07-29T08:36:13;4.93;;;4.17;;
18399;SDS011;9326;49.468;11.008;2023-07-29T08:38:40;9.67;;;5.30;;
18399;SDS011;9326;49.468;11.008;2023-07-29T08:41:10;6.90;;;5.07;;
18399;SDS011;9326;49.468;11.008;2023-07-29T08:43:38;5.43;;;4.93;;
18399;SDS011;9326;49.468;11.008;2023-07-29T08:46:08;5.10;;;4.60;;
18399;SDS011;9326;49.468;11.008;2023-07-29T08:48:36;4.80;;;4.33;;
18399;SDS011;9326;49.468;11.008;2023-07-29T08:51:06;7.00;;;4.37;;
18399;SDS011;9326;49.468;11.008;2023-07-29T08:53:34;4.70;;;3.53;;
18399;SDS011;9326;49.468;11.008;2023-07-29T08:56:02;3.80;;;3.17;;
18399;SDS011;9326;49.468;11.008;2023-07-29T08:58:29;2.90;;;2.70;;
18399;SDS011;9326;49.468;11.008;2023-07-29T09:00:57;4.17;;;3.00;;
18399;SDS011;9326;49.468;11.008;2023-07-29T09:03:25;6.87;;;3.00;;
18399;SDS011;9326;49.468;11.008;2023-07-29T09:05:52;3.63;;;2.30;;
18399;SDS011;9326;49.468;11.008;2023-07-29T09:08:19;2.73;;;2.40;;
18399;SDS011;9326;49.468;11.008;2023-07-29T09:10:46;4.07;;;2.90;;
18399;SDS011;9326;49.468;11.008;2023-07-29T09:13:14;3.30;;;2.80;;
18399;SDS011;9326;49.468;11.008;2023-07-29T09:15:41;2.80;;;2.60;;
18399;SDS011;9326;49.468;11.008;2023-07-29T09:18:08;3.93;;;2.87;;
18399;SDS011;9326;49.468;11.008;2023-07-29T09:20:37;3.63;;;2.70;;
18399;SDS011;9326;49.468;11.008;2023-07-29T09:23:06;4.90;;;2.83;;
18399;SDS011;9326;49.468;11.008;2023-07-29T09:25:34;19.10;;;3.37;;
18399;SDS011;9326;49.468;11.008;2023-07-29T09:28:01;2.90;;;2.50;;
18399;SDS011;9326;49.468;11.008;2023-07-29T09:30:33;4.67;;;2.80;;
18399;SDS011;9326;49.468;11.008;2023-07-29T09:33:01;5.33;;;3.07;;
18399;SDS011;9326;49.468;11.008;2023-07-29T09:35:28;11.77;;;2.87;;
18399;SDS011;9326;49.468;11.008;2023-07-29T09:37:57;3.80;;;3.13;;
18399;SDS011;9326;49.468;11.008;2023-07-29T09:40:24;3.20;;;2.90;;
18399;SDS011;9326;49.468;11.008;2023-07-29T09:42:52;3.83;;;2.40;;
18399;SDS011;9326;49.468;11.008;2023-07-29T09:45:20;3.50;;;2.90;;
18399;SDS011;9326;49.468;11.008;2023-07-29T09:47:47;3.03;;;2.83;;
18399;SDS011;9326;49.468;11.008;2023-07-29T09:50:14;3.53;;;2.77;;
18399;SDS011;9326;49.468;11.008;2023-07-29T09:52:41;4.43;;;3.00;;
18399;SDS011;9326;49.468;11.008;2023-07-29T09:55:10;3.50;;;3.20;;
18399;SDS011;9326;49.468;11.008;2023-07-29T09:57:38;3.93;;;3.53;;
18399;SDS011;9326;49.468;11.008;2023-07-29T10:00:06;4.13;;;3.53;;
18399;SDS011;9326;49.468;11.008;2023-07-29T10:02:36;4.33;;;3.73;;
18399;SDS011;9326;49.468;11.008;2023-07-29T10:05:03;3.90;;;3.33;;
18399;SDS011;9326;49.468;11.008;2023-07-29T10:07:31;4.20;;;3.57;;
18399;SDS011;9326;49.468;11.008;2023-07-29T10:09:58;4.40;;;4.00;;
18399;SDS011;9326;49.468;11.008;2023-07-29T10:12:26;4.73;;;4.17;;
18399;SDS011;9326;49.468;11.008;2023-07-29T10:14:54;4.47;;;3.90;;
18399;SDS011;9326;49.468;11.008;2023-07-29T10:17:21;4.40;;;4.10;;
18399;SDS011;9326;49.468;11.008;2023-07-29T10:19:49;5.27;;;4.17;;
18399;SDS011;9326;49.468;11.008;2023-07-29T10:22:16;4.40;;;4.00;;
18399;SDS011;9326;49.468;11.008;2023-07-29T10:24:45;4.40;;;4.00;;
18399;SDS011;9326;49.468;11.008;2023-07-29T10:27:14;4.53;;;4.03;;
18399;SDS011;9326;49.468;11.008;2023-07-29T10:29:46;4.00;;;3.70;;
18399;SDS011;9326;49.468;11.008;2023-07-29T10:32:13;4.10;;;3.70;;
18399;SDS011;9326;49.468;11.008;2023-07-29T10:34:40;2.83;;;2.63;;
18399;SDS011;9326;49.468;11.008;2023-07-29T10:37:08;2.67;;;2.47;;
18399;SDS011;9326;49.468;11.008;2023-07-29T10:39:37;3.27;;;2.97;;
18399;SDS011;9326;49.468;11.008;2023-07-29T10:42:06;3.23;;;3.03;;
18399;SDS011;9326;49.468;11.008;2023-07-29T10:44:52;3.30;;;2.70;;
18399;SDS011;9326;49.468;11.008;2023-07-29T10:47:21;2.97;;;2.77;;
18399;SDS011;9326;49.468;11.008;2023-07-29T10:49:49;2.93;;;2.63;;
18399;SDS011;9326;49.468;11.008;2023-07-29T10:52:17;2.83;;;2.53;;
18399;SDS011;9326;49.468;11.008;2023-07-29T10:54:54;2.87;;;2.67;;
18399;SDS011;9326;49.468;11.008;2023-07-29T10:57:30;3.30;;;2.43;;
18399;SDS011;9326;49.468;11.008;2023-07-29T10:59:58;2.17;;;2.00;;
18399;SDS011;9326;49.468;11.008;2023-07-29T11:02:29;4.13;;;2.43;;
18399;SDS011;9326;49.468;11.008;2023-07-29T11:04:57;2.47;;;2.00;;
18399;SDS011;9326;49.468;11.008;2023-07-29T11:07:25;2.20;;;2.10;;
18399;SDS011;9326;49.468;11.008;2023-07-29T11:09:56;2.33;;;2.10;;
18399;SDS011;9326;49.468;11.008;2023-07-29T11:15:21;2.77;;;2.20;;
18399;SDS011;9326;49.468;11.008;2023-07-29T11:17:50;2.80;;;1.60;;
18399;SDS011;9326;49.468;11.008;2023-07-29T11:20:17;1.90;;;1.70;;
18399;SDS011;9326;49.468;11.008;2023-07-29T11:22:45;2.77;;;1.90;;
18399;SDS011;9326;49.468;11.008;2023-07-29T11:25:13;2.20;;;1.73;;
18399;SDS011;9326;49.468;11.008;2023-07-29T11:27:40;2.60;;;1.90;;
18399;SDS011;9326;49.468;11.008;2023-07-29T11:30:07;2.70;;;1.90;;
18399;SDS011;9326;49.468;11.008;2023-07-29T11:32:37;1.90;;;1.80;;
18399;SDS011;9326;49.468;11.008;2023-07-29T11:35:06;1.90;;;1.80;;
18399;SDS011;9326;49.468;11.008;2023-07-29T11:37:41;2.07;;;1.83;;
18399;SDS011;9326;49.468;11.008;2023-07-29T11:40:08;2.20;;;2.00;;
18399;SDS011;9326;49.468;11.008;2023-07-29T11:42:36;1.80;;;1.70;;
18399;SDS011;9326;49.468;11.008;2023-07-29T11:45:04;2.10;;;1.80;;
18399;SDS011;9326;49.468;11.008;2023-07-29T11:47:32;1.83;;;1.60;;
18399;SDS011;9326;49.468;11.008;2023-07-29T11:50:03;1.97;;;1.80;;
18399;SDS011;9326;49.468;11.008;2023-07-29T11:52:31;2.07;;;1.70;;
18399;SDS011;9326;49.468;11.008;2023-07-29T11:54:58;3.77;;;1.80;;
18399;SDS011;9326;49.468;11.008;2023-07-29T11:57:26;1.80;;;1.70;;
18399;SDS011;9326;49.468;11.008;2023-07-29T11:59:53;1.70;;;1.60;;
18399;SDS011;9326;49.468;11.008;2023-07-29T12:02:20;1.63;;;1.53;;
18399;SDS011;9326;49.468;11.008;2023-07-29T12:04:49;2.00;;;1.83;;
18399;SDS011;9326;49.468;11.008;2023-07-29T12:07:17;1.60;;;1.50;;
18399;SDS011;9326;49.468;11.008;2023-07-29T12:09:45;1.60;;;1.50;;
18399;SDS011;9326;49.468;11.008;2023-07-29T12:12:13;1.80;;;1.70;;
18399;SDS011;9326;49.468;11.008;2023-07-29T12:14:42;2.00;;;1.80;;
18399;SDS011;9326;49.468;11.008;2023-07-29T12:17:09;2.20;;;1.60;;
18399;SDS011;9326;49.468;11.008;2023-07-29T12:19:37;1.90;;;1.70;;
18399;SDS011;9326;49.468;11.008;2023-07-29T12:22:05;1.83;;;1.60;;
18399;SDS011;9326;49.468;11.008;2023-07-29T12:24:35;3.37;;;1.40;;
18399;SDS011;9326;49.468;11.008;2023-07-29T12:27:03;1.77;;;1.67;;
18399;SDS011;9326;49.468;11.008;2023-07-29T12:29:30;1.93;;;1.83;;
18399;SDS011;9326;49.468;11.008;2023-07-29T12:31:58;2.90;;;1.60;;
18399;SDS011;9326;49.468;11.008;2023-07-29T12:34:25;2.33;;;1.67;;
18399;SDS011;9326;49.468;11.008;2023-07-29T12:36:52;2.50;;;1.40;;
18399;SDS011;9326;49.468;11.008;2023-07-29T12:39:21;1.60;;;1.50;;
18399;SDS011;9326;49.468;11.008;2023-07-29T12:41:51;1.60;;;1.50;;
18399;SDS011;9326;49.468;11.008;2023-07-29T12:44:18;1.83;;;1.60;;
18399;SDS011;9326;49.468;11.008;2023-07-29T12:46:45;2.30;;;1.83;;
18399;SDS011;9326;49.468;11.008;2023-07-29T12:49:12;1.93;;;1.73;;
18399;SDS011;9326;49.468;11.008;2023-07-29T12:51:40;1.60;;;1.50;;
18399;SDS011;9326;49.468;11.008;2023-07-29T12:54:07;1.90;;;1.80;;
18399;SDS011;9326;49.468;11.008;2023-07-29T12:56:34;1.57;;;1.47;;
18399;SDS011;9326;49.468;11.008;2023-07-29T12:59:04;2.00;;;1.50;;
18399;SDS011;9326;49.468;11.008;2023-07-29T13:01:31;1.50;;;1.40;;
18399;SDS011;9326;49.468;11.008;2023-07-29T13:03:58;1.70;;;1.60;;
18399;SDS011;9326;49.468;11.008;2023-07-29T13:06:25;2.13;;;1.63;;
18399;SDS011;9326;49.468;11.008;2023-07-29T13:08:52;2.20;;;1.60;;
18399;SDS011;9326;49.468;11.008;2023-07-29T13:11:22;1.87;;;1.57;;
18399;SDS011;9326;49.468;11.008;2023-07-29T13:13:49;1.70;;;1.60;;
18399;SDS011;9326;49.468;11.008;2023-07-29T13:16:18;2.50;;;1.50;;
18399;SDS011;9326;49.468;11.008;2023-07-29T13:18:45;2.00;;;1.27;;
18399;SDS011;9326;49.468;11.008;2023-07-29T13:21:12;1.83;;;1.53;;
18399;SDS011;9326;49.468;11.008;2023-07-29T13:23:39;1.83;;;1.50;;
18399;SDS011;9326;49.468;11.008;2023-07-29T13:26:07;2.03;;;1.50;;
18399;SDS011;9326;49.468;11.008;2023-07-29T13:28:34;1.50;;;1.30;;
18399;SDS011;9326;49.468;11.008;2023-07-29T13:31:04;1.70;;;1.40;;
18399;SDS011;9326;49.468;11.008;2023-07-29T13:33:33;1.40;;;1.30;;
18399;SDS011;9326;49.468;11.008;2023-07-29T13:36:00;1.20;;;1.10;;
18399;SDS011;9326;49.468;11.008;2023-07-29T13:38:30;1.40;;;1.30;;
18399;SDS011;9326;49.468;11.008;2023-07-29T13:44:17;2.33;;;1.73;;
18399;SDS011;9326;49.468;11.008;2023-07-29T13:47:26;1.20;;;1.20;;
18399;SDS011;9326;49.468;11.008;2023-07-29T13:56:12;1.37;;;1.27;;
18399;SDS011;9326;49.468;11.008;2023-07-29T13:58:59;1.47;;;1.37;;
18399;SDS011;9326;49.468;11.008;2023-07-29T14:02:19;1.40;;;1.30;;
18399;SDS011;9326;49.468;11.008;2023-07-29T14:05:26;1.53;;;1.50;;
18399;SDS011;9326;49.468;11.008;2023-07-29T14:08:28;1.40;;;1.30;;
18399;SDS011;9326;49.468;11.008;2023-07-29T14:11:28;1.20;;;1.10;;
18399;SDS011;9326;49.468;11.008;2023-07-29T14:14:10;2.00;;;1.20;;
18399;SDS011;9326;49.468;11.008;2023-07-29T14:20:13;1.50;;;1.07;;
18399;SDS011;9326;49.468;11.008;2023-07-29T14:29:00;1.13;;;1.03;;
18399;SDS011;9326;49.468;11.008;2023-07-29T14:37:27;1.83;;;1.03;;
18399;SDS011;9326;49.468;11.008;2023-07-29T14:40:31;1.30;;;1.10;;
18399;SDS011;9326;49.468;11.008;2023-07-29T14:43:05;1.00;;;1.00;;
18399;SDS011;9326;49.468;11.008;2023-07-29T14:46:02;1.30;;;1.20;;
18399;SDS011;9326;49.468;11.008;2023-07-29T14:48:54;1.03;;;1.03;;
18399;SDS011;9326;49.468;11.008;2023-07-29T14:51:41;1.40;;;1.30;;
18399;SDS011;9326;49.468;11.008;2023-07-29T14:54:29;1.70;;;1.60;;
18399;SDS011;9326;49.468;11.008;2023-07-29T14:57:21;1.20;;;1.10;;
18399;SDS011;9326;49.468;11.008;2023-07-29T15:00:17;1.30;;;1.20;;
18399;SDS011;9326;49.468;11.008;2023-07-29T15:06:05;1.10;;;1.10;;
18399;SDS011;9326;49.468;11.008;2023-07-29T15:08:57;2.40;;;1.30;;
18399;SDS011;9326;49.468;11.008;2023-07-29T15:14:42;1.53;;;1.43;;
18399;SDS011;9326;49.468;11.008;2023-07-29T15:20:36;1.33;;;1.23;;
18399;SDS011;9326;49.468;11.008;2023-07-29T15:25:58;1.77;;;1.30;;
18399;SDS011;9326;49.468;11.008;2023-07-29T15:28:25;1.43;;;1.33;;
18399;SDS011;9326;49.468;11.008;2023-07-29T15:30:54;1.50;;;1.40;;
18399;SDS011;9326;49.468;11.008;2023-07-29T15:33:21;1.60;;;1.50;;
18399;SDS011;9326;49.468;11.008;2023-07-29T15:35:48;6.40;;;5.57;;
18399;SDS011;9326;49.468;11.008;2023-07-29T15:38:17;3.50;;;2.33;;
18399;SDS011;9326;49.468;11.008;2023-07-29T15:40:44;1.80;;;1.70;;
18399;SDS011;9326;49.468;11.008;2023-07-29T15:43:13;2.23;;;1.70;;
18399;SDS011;9326;49.468;11.008;2023-07-29T15:45:41;1.53;;;1.43;;
18399;SDS011;9326;49.468;11.008;2023-07-29T15:48:10;1.57;;;1.47;;
18399;SDS011;9326;49.468;11.008;2023-07-29T15:50:38;2.80;;;1.80;;
18399;SDS011;9326;49.468;11.008;2023-07-29T15:53:05;1.90;;;1.80;;
18399;SDS011;9326;49.468;11.008;2023-07-29T15:55:32;1.53;;;1.43;;
18399;SDS011;9326;49.468;11.008;2023-07-29T15:57:59;1.40;;;1.30;;
18399;SDS011;9326;49.468;11.008;2023-07-29T16:00:26;1.93;;;1.80;;
18399;SDS011;9326;49.468;11.008;2023-07-29T16:02:54;1.80;;;1.70;;
18399;SDS011;9326;49.468;11.008;2023-07-29T16:05:22;1.60;;;1.50;;
18399;SDS011;9326;49.468;11.008;2023-07-29T16:07:49;1.27;;;1.20;;
18399;SDS011;9326;49.468;11.008;2023-07-29T16:10:18;1.43;;;1.33;;
18399;SDS011;9326;49.468;11.008;2023-07-29T16:12:45;2.23;;;1.40;;
18399;SDS011;9326;49.468;11.008;2023-07-29T16:15:12;2.97;;;1.70;;
18399;SDS011;9326;49.468;11.008;2023-07-29T16:17:39;1.67;;;1.57;;
18399;SDS011;9326;49.468;11.008;2023-07-29T16:20:07;2.00;;;1.90;;
18399;SDS011;9326;49.468;11.008;2023-07-29T16:22:35;1.50;;;1.40;;
18399;SDS011;9326;49.468;11.008;2023-07-29T16:25:02;1.60;;;1.50;;
18399;SDS011;9326;49.468;11.008;2023-07-29T16:27:30;2.37;;;1.50;;
18399;SDS011;9326;49.468;11.008;2023-07-29T16:29:58;1.97;;;1.73;;
18399;SDS011;9326;49.468;11.008;2023-07-29T16:32:25;2.43;;;2.23;;
18399;SDS011;9326;49.468;11.008;2023-07-29T16:34:52;2.60;;;2.40;;
18399;SDS011;9326;49.468;11.008;2023-07-29T16:37:20;3.40;;;3.10;;
18399;SDS011;9326;49.468;11.008;2023-07-29T16:39:48;1.53;;;1.40;;
18399;SDS011;9326;49.468;11.008;2023-07-29T16:42:15;1.57;;;1.47;;
18399;SDS011;9326;49.468;11.008;2023-07-29T16:44:42;2.00;;;1.80;;
18399;SDS011;9326;49.468;11.008;2023-07-29T16:47:09;1.57;;;1.47;;
18399;SDS011;9326;49.468;11.008;2023-07-29T16:49:36;1.60;;;1.50;;
18399;SDS011;9326;49.468;11.008;2023-07-29T16:52:04;1.43;;;1.33;;
18399;SDS011;9326;49.468;11.008;2023-07-29T16:54:31;1.87;;;1.60;;
18399;SDS011;9326;49.468;11.008;2023-07-29T16:57:00;1.50;;;1.40;;
18399;SDS011;9326;49.468;11.008;2023-07-29T16:59:27;1.90;;;1.80;;
18399;SDS011;9326;49.468;11.008;2023-07-29T17:01:56;1.50;;;1.40;;
18399;SDS011;9326;49.468;11.008;2023-07-29T17:04:26;1.87;;;1.77;;
18399;SDS011;9326;49.468;11.008;2023-07-29T17:06:53;1.80;;;1.40;;
18399;SDS011;9326;49.468;11.008;2023-07-29T17:09:20;1.60;;;1.50;;
18399;SDS011;9326;49.468;11.008;2023-07-29T17:11:47;1.77;;;1.67;;
18399;SDS011;9326;49.468;11.008;2023-07-29T17:14:16;1.73;;;1.60;;
18399;SDS011;9326;49.468;11.008;2023-07-29T17:16:43;2.40;;;1.70;;
18399;SDS011;9326;49.468;11.008;2023-07-29T17:19:10;2.07;;;1.50;;
18399;SDS011;9326;49.468;11.008;2023-07-29T17:21:40;1.60;;;1.50;;
18399;SDS011;9326;49.468;11.008;2023-07-29T17:24:07;3.37;;;1.63;;
18399;SDS011;9326;49.468;11.008;2023-07-29T17:26:34;1.83;;;1.70;;
18399;SDS011;9326;49.468;11.008;2023-07-29T17:29:01;1.57;;;1.47;;
18399;SDS011;9326;49.468;11.008;2023-07-29T17:31:30;1.60;;;1.50;;
18399;SDS011;9326;49.468;11.008;2023-07-29T17:34:06;2.23;;;1.70;;
18399;SDS011;9326;49.468;11.008;2023-07-29T17:36:36;2.27;;;1.43;;
18399;SDS011;9326;49.468;11.008;2023-07-29T17:39:07;2.50;;;1.80;;
18399;SDS011;9326;49.468;11.008;2023-07-29T17:41:37;1.50;;;1.40;;
18399;SDS011;9326;49.468;11.008;2023-07-29T17:44:05;1.80;;;1.70;;
18399;SDS011;9326;49.468;11.008;2023-07-29T17:46:33;1.70;;;1.60;;
18399;SDS011;9326;49.468;11.008;2023-07-29T17:49:02;2.13;;;1.63;;
18399;SDS011;9326;49.468;11.008;2023-07-29T17:51:30;1.70;;;1.60;;
18399;SDS011;9326;49.468;11.008;2023-07-29T17:53:57;2.03;;;1.70;;
18399;SDS011;9326;49.468;11.008;2023-07-29T17:56:25;3.03;;;2.10;;
18399;SDS011;9326;49.468;11.008;2023-07-29T17:58:53;1.90;;;1.80;;
18399;SDS011;9326;49.468;11.008;2023-07-29T18:01:20;2.00;;;1.90;;
18399;SDS011;9326;49.468;11.008;2023-07-29T18:03:50;1.90;;;1.70;;
18399;SDS011;9326;49.468;11.008;2023-07-29T18:06:18;1.70;;;1.60;;
18399;SDS011;9326;49.468;11.008;2023-07-29T18:08:45;2.83;;;1.87;;
18399;SDS011;9326;49.468;11.008;2023-07-29T18:11:12;2.00;;;1.80;;
18399;SDS011;9326;49.468;11.008;2023-07-29T18:13:42;1.90;;;1.60;;
18399;SDS011;9326;49.468;11.008;2023-07-29T18:16:09;2.10;;;1.63;;
18399;SDS011;9326;49.468;11.008;2023-07-29T18:18:37;1.90;;;1.70;;
18399;SDS011;9326;49.468;11.008;2023-07-29T18:21:06;3.37;;;1.90;;
18399;SDS011;9326;49.468;11.008;2023-07-29T18:23:33;1.90;;;1.80;;
18399;SDS011;9326;49.468;11.008;2023-07-29T18:26:00;2.07;;;1.90;;
18399;SDS011;9326;49.468;11.008;2023-07-29T18:28:27;2.30;;;1.70;;
18399;SDS011;9326;49.468;11.008;2023-07-29T18:30:55;2.43;;;2.23;;
18399;SDS011;9326;49.468;11.008;2023-07-29T18:33:22;2.30;;;2.10;;
18399;SDS011;9326;49.468;11.008;2023-07-29T18:35:49;2.03;;;1.83;;
18399;SDS011;9326;49.468;11.008;2023-07-29T18:38:17;2.57;;;2.37;;
18399;SDS011;9326;49.468;11.008;2023-07-29T18:40:47;2.40;;;2.20;;
18399;SDS011;9326;49.468;11.008;2023-07-29T18:43:14;2.23;;;2.10;;
18399;SDS011;9326;49.468;11.008;2023-07-29T18:45:41;2.73;;;1.80;;
18399;SDS011;9326;49.468;11.008;2023-07-29T18:48:08;2.40;;;2.20;;
18399;SDS011;9326;49.468;11.008;2023-07-29T18:50:35;2.33;;;2.03;;
18399;SDS011;9326;49.468;11.008;2023-07-29T18:53:02;2.07;;;1.90;;
18399;SDS011;9326;49.468;11.008;2023-07-29T18:55:31;2.03;;;1.93;;
18399;SDS011;9326;49.468;11.008;2023-07-29T18:57:58;2.97;;;2.07;;
18399;SDS011;9326;49.468;11.008;2023-07-29T19:00:25;2.47;;;2.27;;
18399;SDS011;9326;49.468;11.008;2023-07-29T19:02:52;2.33;;;2.13;;
18399;SDS011;9326;49.468;11.008;2023-07-29T19:05:19;2.50;;;2.30;;
18399;SDS011;9326;49.468;11.008;2023-07-29T19:07:46;2.80;;;2.60;;
18399;SDS011;9326;49.468;11.008;2023-07-29T19:10:13;2.90;;;2.63;;
18399;SDS011;9326;49.468;11.008;2023-07-29T19:12:41;3.20;;;2.60;;
18399;SDS011;9326;49.468;11.008;2023-07-29T19:15:10;4.07;;;3.67;;
18399;SDS011;9326;49.468;11.008;2023-07-29T19:17:37;2.87;;;2.67;;
18399;SDS011;9326;49.468;11.008;2023-07-29T19:20:05;4.23;;;2.60;;
18399;SDS011;9326;49.468;11.008;2023-07-29T19:22:32;2.90;;;2.50;;
18399;SDS011;9326;49.468;11.008;2023-07-29T19:24:59;2.60;;;2.20;;
18399;SDS011;9326;49.468;11.008;2023-07-29T19:27:26;2.43;;;2.30;;
18399;SDS011;9326;49.468;11.008;2023-07-29T19:29:54;2.33;;;2.13;;
18399;SDS011;9326;49.468;11.008;2023-07-29T19:32:21;2.60;;;2.40;;
18399;SDS011;9326;49.468;11.008;2023-07-29T19:34:50;2.80;;;2.60;;
18399;SDS011;9326;49.468;11.008;2023-07-29T19:37:19;2.63;;;2.43;;
18399;SDS011;9326;49.468;11.008;2023-07-29T19:39:46;3.20;;;2.40;;
18399;SDS011;9326;49.468;11.008;2023-07-29T19:42:13;2.97;;;2.67;;
18399;SDS011;9326;49.468;11.008;2023-07-29T19:44:40;3.73;;;3.33;;
18399;SDS011;9326;49.468;11.008;2023-07-29T19:47:08;3.80;;;2.80;;
18399;SDS011;9326;49.468;11.008;2023-07-29T19:49:37;3.37;;;3.07;;
18399;SDS011;9326;49.468;11.008;2023-07-29T19:52:04;3.57;;;3.27;;
18399;SDS011;9326;49.468;11.008;2023-07-29T19:54:31;4.30;;;3.90;;
18399;SDS011;9326;49.468;11.008;2023-07-29T19:56:58;4.20;;;3.80;;
18399;SDS011;9326;49.468;11.008;2023-07-29T19:59:25;5.50;;;3.50;;
18399;SDS011;9326;49.468;11.008;2023-07-29T20:01:53;4.00;;;3.70;;
18399;SDS011;9326;49.468;11.008;2023-07-29T20:04:21;6.43;;;3.93;;
18399;SDS011;9326;49.468;11.008;2023-07-29T20:06:48;4.20;;;3.57;;
18399;SDS011;9326;49.468;11.008;2023-07-29T20:09:18;3.73;;;3.17;;
18399;SDS011;9326;49.468;11.008;2023-07-29T20:11:45;3.33;;;3.03;;
18399;SDS011;9326;49.468;11.008;2023-07-29T20:14:12;2.80;;;2.60;;
18399;SDS011;9326;49.468;11.008;2023-07-29T20:16:39;3.30;;;3.00;;
18399;SDS011;9326;49.468;11.008;2023-07-29T20:19:06;2.70;;;2.50;;
18399;SDS011;9326;49.468;11.008;2023-07-29T20:21:35;2.90;;;2.70;;
18399;SDS011;9326;49.468;11.008;2023-07-29T20:24:02;3.00;;;2.70;;
18399;SDS011;9326;49.468;11.008;2023-07-29T20:26:29;2.30;;;2.20;;
18399;SDS011;9326;49.468;11.008;2023-07-29T20:28:57;2.50;;;2.30;;
18399;SDS011;9326;49.468;11.008;2023-07-29T20:31:24;2.50;;;2.30;;
18399;SDS011;9326;49.468;11.008;2023-07-29T20:33:51;3.00;;;2.70;;
18399;SDS011;9326;49.468;11.008;2023-07-29T20:36:18;3.37;;;3.07;;
18399;SDS011;9326;49.468;11.008;2023-07-29T20:38:47;2.90;;;2.70;;
18399;SDS011;9326;49.468;11.008;2023-07-29T20:41:14;3.27;;;2.93;;